sensor_id;sensor_type;location;lat;lon;timestamp;pressure;altitude;pressure_sealevel;temperature;humidity
25232;BME280;13176;51.140;6.290;2022-12-17T00:02:57;101530.84;;;3.46;77.54
25232;BME280;13176;51.140;6.290;2022-12-17T00:05:42;101520.25;;;3.35;77.55
25232;BME280;13176;51.140;6.290;2022-12-17T00:08:28;101537.69;;;3.44;77.91
25232;BME280;13176;51.140;6.290;2022-12-17T00:11:13;101536.91;;;3.46;77.81
25232;BME280;13176;51.140;6.290;2022-12-17T00:13:58;101552.00;;;3.34;78.06
25232;BME280;13176;51.140;6.290;2022-12-17T00:16:42;101514.03;;;3.28;77.57
25232;BME280;13176;51.140;6.290;2022-12-17T00:19:27;101523.00;;;3.41;77.43
25232;BME280;13176;51.140;6.290;2022-12-17T00:22:12;101488.16;;;3.25;77.29
25232;BME280;13176;51.140;6.290;2022-12-17T00:24:57;101540.56;;;3.54;77.43
25232;BME280;13176;51.140;6.290;2022-12-17T00:27:42;101561.03;;;3.48;77.26
25232;BME280;13176;51.140;6.290;2022-12-17T00:30:27;101516.59;;;3.28;77.56
25232;BME280;13176;51.140;6.290;2022-12-17T00:33:12;101557.63;;;3.49;76.98
25232;BME280;13176;51.140;6.290;2022-12-17T00:35:56;101552.38;;;3.46;77.25
25232;BME280;13176;51.140;6.290;2022-12-17T00:38:41;101555.06;;;3.51;77.14
25232;BME280;13176;51.140;6.290;2022-12-17T00:41:26;101556.06;;;3.54;77.07
25232;BME280;13176;51.140;6.290;2022-12-17T00:44:11;101534.66;;;3.28;76.92
25232;BME280;13176;51.140;6.290;2022-12-17T00:46:56;101581.84;;;3.54;76.85
25232;BME280;13176;51.140;6.290;2022-12-17T00:49:41;101549.19;;;3.26;77.01
25232;BME280;13176;51.140;6.290;2022-12-17T00:52:26;101558.91;;;3.35;77.04
25232;BME280;13176;51.140;6.290;2022-12-17T00:55:11;101541.53;;;3.29;76.66
25232;BME280;13176;51.140;6.290;2022-12-17T00:57:56;101595.66;;;3.56;76.61
25232;BME280;13176;51.140;6.290;2022-12-17T01:00:41;101541.38;;;3.23;76.81
25232;BME280;13176;51.140;6.290;2022-12-17T01:03:27;101595.75;;;3.59;76.36
25232;BME280;13176;51.140;6.290;2022-12-17T01:06:12;101557.34;;;3.40;76.52
25232;BME280;13176;51.140;6.290;2022-12-17T01:08:57;101569.59;;;3.47;76.76
25232;BME280;13176;51.140;6.290;2022-12-17T01:11:42;101567.75;;;3.43;76.52
25232;BME280;13176;51.140;6.290;2022-12-17T01:14:27;101581.75;;;3.51;76.53
25232;BME280;13176;51.140;6.290;2022-12-17T01:17:12;101551.94;;;3.32;76.42
25232;BME280;13176;51.140;6.290;2022-12-17T01:19:56;101577.13;;;3.40;76.53
25232;BME280;13176;51.140;6.290;2022-12-17T01:22:44;101560.66;;;3.36;76.29
25232;BME280;13176;51.140;6.290;2022-12-17T01:25:29;101561.50;;;3.35;76.44
25232;BME280;13176;51.140;6.290;2022-12-17T01:28:20;101594.81;;;3.57;76.55
25232;BME280;13176;51.140;6.290;2022-12-17T01:31:05;101560.34;;;3.25;76.46
25232;BME280;13176;51.140;6.290;2022-12-17T01:33:54;101591.78;;;3.42;76.64
25232;BME280;13176;51.140;6.290;2022-12-17T01:36:39;101588.28;;;3.40;76.41
25232;BME280;13176;51.140;6.290;2022-12-17T01:39:23;101565.91;;;3.39;76.19
25232;BME280;13176;51.140;6.290;2022-12-17T01:42:11;101600.38;;;3.41;76.15
25232;BME280;13176;51.140;6.290;2022-12-17T01:44:57;101584.63;;;3.33;76.26
25232;BME280;13176;51.140;6.290;2022-12-17T01:47:51;101641.16;;;3.54;75.54
25232;BME280;13176;51.140;6.290;2022-12-17T01:50:51;101606.66;;;3.22;76.07
25232;BME280;13176;51.140;6.290;2022-12-17T01:53:45;101630.34;;;3.38;76.13
25232;BME280;13176;51.140;6.290;2022-12-17T01:56:32;101636.47;;;3.41;76.20
25232;BME280;13176;51.140;6.290;2022-12-17T01:59:24;101605.53;;;3.14;76.20
25232;BME280;13176;51.140;6.290;2022-12-17T02:02:10;101602.78;;;3.08;76.65
25232;BME280;13176;51.140;6.290;2022-12-17T02:04:56;101608.03;;;3.11;76.78
25232;BME280;13176;51.140;6.290;2022-12-17T02:10:58;101598.09;;;3.23;76.10
25232;BME280;13176;51.140;6.290;2022-12-17T02:16:58;101618.75;;;3.24;76.20
25232;BME280;13176;51.140;6.290;2022-12-17T02:26:03;101644.94;;;3.37;76.86
25232;BME280;13176;51.140;6.290;2022-12-17T02:28:50;101613.66;;;3.26;76.23
25232;BME280;13176;51.140;6.290;2022-12-17T02:31:40;101639.94;;;3.42;76.00
25232;BME280;13176;51.140;6.290;2022-12-17T02:34:28;101622.47;;;3.33;76.19
25232;BME280;13176;51.140;6.290;2022-12-17T02:37:13;101616.13;;;3.23;76.21
25232;BME280;13176;51.140;6.290;2022-12-17T02:39:58;101630.44;;;3.41;75.77
25232;BME280;13176;51.140;6.290;2022-12-17T02:42:44;101636.47;;;3.41;75.80
25232;BME280;13176;51.140;6.290;2022-12-17T02:45:38;101592.66;;;3.14;75.29
25232;BME280;13176;51.140;6.290;2022-12-17T02:48:23;101648.34;;;3.36;75.45
25232;BME280;13176;51.140;6.290;2022-12-17T02:51:10;101629.84;;;3.22;75.51
25232;BME280;13176;51.140;6.290;2022-12-17T02:53:55;101651.09;;;3.15;75.53
25232;BME280;13176;51.140;6.290;2022-12-17T02:56:40;101646.78;;;3.14;75.62
25232;BME280;13176;51.140;6.290;2022-12-17T02:59:25;101623.47;;;3.11;75.37
25232;BME280;13176;51.140;6.290;2022-12-17T03:02:10;101603.38;;;2.99;75.25
25232;BME280;13176;51.140;6.290;2022-12-17T03:04:55;101607.63;;;2.99;75.26
25232;BME280;13176;51.140;6.290;2022-12-17T03:08:00;101635.16;;;3.00;76.05
25232;BME280;13176;51.140;6.290;2022-12-17T03:10:45;101650.91;;;3.09;75.38
25232;BME280;13176;51.140;6.290;2022-12-17T03:13:30;101568.44;;;2.54;75.62
25232;BME280;13176;51.140;6.290;2022-12-17T03:16:16;101637.94;;;3.06;75.82
25232;BME280;13176;51.140;6.290;2022-12-17T03:19:03;101646.59;;;3.08;75.50
25232;BME280;13176;51.140;6.290;2022-12-17T03:21:49;101647.81;;;3.19;75.53
25232;BME280;13176;51.140;6.290;2022-12-17T03:24:33;101642.06;;;3.01;75.38
25232;BME280;13176;51.140;6.290;2022-12-17T03:27:18;101643.72;;;2.99;75.64
25232;BME280;13176;51.140;6.290;2022-12-17T03:30:03;101651.84;;;3.11;75.50
25232;BME280;13176;51.140;6.290;2022-12-17T03:32:48;101655.88;;;3.03;75.76
25232;BME280;13176;51.140;6.290;2022-12-17T03:35:33;101565.84;;;2.54;75.95
25232;BME280;13176;51.140;6.290;2022-12-17T03:38:17;101658.41;;;2.75;76.33
25232;BME280;13176;51.140;6.290;2022-12-17T03:41:02;101684.38;;;3.07;76.19
25232;BME280;13176;51.140;6.290;2022-12-17T03:43:47;101654.75;;;2.95;75.25
25232;BME280;13176;51.140;6.290;2022-12-17T03:46:31;101632.13;;;2.85;75.64
25232;BME280;13176;51.140;6.290;2022-12-17T03:49:16;101680.31;;;3.15;75.37
25232;BME280;13176;51.140;6.290;2022-12-17T03:52:02;101681.88;;;3.10;75.58
25232;BME280;13176;51.140;6.290;2022-12-17T03:54:47;101679.41;;;3.13;75.32
25232;BME280;13176;51.140;6.290;2022-12-17T03:57:31;101687.41;;;3.21;75.39
25232;BME280;13176;51.140;6.290;2022-12-17T04:00:16;101670.94;;;3.17;75.49
25232;BME280;13176;51.140;6.290;2022-12-17T04:03:01;101688.88;;;3.40;75.00
25232;BME280;13176;51.140;6.290;2022-12-17T04:05:46;101694.94;;;3.42;74.92
25232;BME280;13176;51.140;6.290;2022-12-17T04:08:31;101671.94;;;3.21;75.21
25232;BME280;13176;51.140;6.290;2022-12-17T04:11:15;101672.78;;;3.21;75.22
25232;BME280;13176;51.140;6.290;2022-12-17T04:14:00;101634.00;;;3.17;74.93
25232;BME280;13176;51.140;6.290;2022-12-17T04:16:45;101639.81;;;3.11;74.89
25232;BME280;13176;51.140;6.290;2022-12-17T04:19:30;101686.75;;;3.28;75.13
25232;BME280;13176;51.140;6.290;2022-12-17T04:22:14;101661.41;;;3.15;75.07
25232;BME280;13176;51.140;6.290;2022-12-17T04:24:59;101674.41;;;3.18;75.02
25232;BME280;13176;51.140;6.290;2022-12-17T04:27:44;101652.56;;;3.07;74.81
25232;BME280;13176;51.140;6.290;2022-12-17T04:30:29;101674.41;;;3.18;75.02
25232;BME280;13176;51.140;6.290;2022-12-17T04:33:14;101692.56;;;3.21;75.23
25232;BME280;13176;51.140;6.290;2022-12-17T04:36:00;101706.47;;;3.26;75.27
25232;BME280;13176;51.140;6.290;2022-12-17T04:38:44;101724.25;;;3.44;74.93
25232;BME280;13176;51.140;6.290;2022-12-17T04:41:29;101714.47;;;3.34;74.56
25232;BME280;13176;51.140;6.290;2022-12-17T04:44:14;101660.44;;;2.85;74.75
25232;BME280;13176;51.140;6.290;2022-12-17T04:46:59;101685.16;;;3.05;74.47
25232;BME280;13176;51.140;6.290;2022-12-17T04:49:44;101670.50;;;3.04;73.89
25232;BME280;13176;51.140;6.290;2022-12-17T04:52:29;101678.25;;;3.04;73.25
25232;BME280;13176;51.140;6.290;2022-12-17T04:55:14;101711.78;;;3.32;73.39
25232;BME280;13176;51.140;6.290;2022-12-17T04:58:03;101712.06;;;3.40;72.65
25232;BME280;13176;51.140;6.290;2022-12-17T05:00:52;101732.81;;;3.43;72.41
25232;BME280;13176;51.140;6.290;2022-12-17T05:03:38;101722.38;;;3.40;72.55
25232;BME280;13176;51.140;6.290;2022-12-17T05:06:24;101734.56;;;3.44;72.07
25232;BME280;13176;51.140;6.290;2022-12-17T05:09:09;101700.91;;;3.14;72.03
25232;BME280;13176;51.140;6.290;2022-12-17T05:11:54;101743.91;;;3.41;71.95
25232;BME280;13176;51.140;6.290;2022-12-17T05:14:39;101737.56;;;3.32;72.01
25232;BME280;13176;51.140;6.290;2022-12-17T05:17:24;101749.94;;;3.41;71.85
25232;BME280;13176;51.140;6.290;2022-12-17T05:20:09;101707.41;;;3.03;71.44
25232;BME280;13176;51.140;6.290;2022-12-17T05:22:54;101733.50;;;3.12;71.91
25232;BME280;13176;51.140;6.290;2022-12-17T05:25:39;101728.47;;;3.16;72.31
25232;BME280;13176;51.140;6.290;2022-12-17T05:28:23;101734.75;;;3.24;71.92
25232;BME280;13176;51.140;6.290;2022-12-17T05:31:08;101716.16;;;3.08;71.15
25232;BME280;13176;51.140;6.290;2022-12-17T05:33:53;101732.59;;;3.11;71.78
25232;BME280;13176;51.140;6.290;2022-12-17T05:36:38;101723.69;;;3.02;71.73
25232;BME280;13176;51.140;6.290;2022-12-17T05:39:23;101733.06;;;3.00;71.82
25232;BME280;13176;51.140;6.290;2022-12-17T05:42:08;101748.06;;;3.11;72.11
25232;BME280;13176;51.140;6.290;2022-12-17T05:44:52;101718.09;;;2.88;71.64
25232;BME280;13176;51.140;6.290;2022-12-17T05:47:37;101738.44;;;3.06;71.99
25232;BME280;13176;51.140;6.290;2022-12-17T05:50:22;101743.50;;;3.03;71.98
25232;BME280;13176;51.140;6.290;2022-12-17T05:53:07;101715.59;;;2.90;71.83
25232;BME280;13176;51.140;6.290;2022-12-17T05:55:53;101731.31;;;2.99;71.86
25232;BME280;13176;51.140;6.290;2022-12-17T05:58:38;101708.69;;;2.89;71.71
25232;BME280;13176;51.140;6.290;2022-12-17T06:01:23;101736.78;;;3.08;71.63
25232;BME280;13176;51.140;6.290;2022-12-17T06:04:09;101721.22;;;3.05;71.57
25232;BME280;13176;51.140;6.290;2022-12-17T06:06:54;101750.03;;;3.18;71.43
25232;BME280;13176;51.140;6.290;2022-12-17T06:09:38;101764.88;;;3.25;71.15
25232;BME280;13176;51.140;6.290;2022-12-17T06:12:23;101757.91;;;3.23;71.06
25232;BME280;13176;51.140;6.290;2022-12-17T06:15:08;101747.41;;;3.17;70.83
25232;BME280;13176;51.140;6.290;2022-12-17T06:17:55;101788.97;;;3.26;70.99
25232;BME280;13176;51.140;6.290;2022-12-17T06:20:42;101786.22;;;3.21;70.81
25232;BME280;13176;51.140;6.290;2022-12-17T06:23:27;101743.00;;;2.88;71.26
25232;BME280;13176;51.140;6.290;2022-12-17T06:26:12;101754.09;;;3.12;70.67
25232;BME280;13176;51.140;6.290;2022-12-17T06:28:57;101779.28;;;3.19;70.26
25232;BME280;13176;51.140;6.290;2022-12-17T06:31:42;101786.28;;;3.23;69.91
25232;BME280;13176;51.140;6.290;2022-12-17T06:34:27;101746.78;;;2.99;70.18
25232;BME280;13176;51.140;6.290;2022-12-17T06:37:11;101778.34;;;3.17;70.16
25232;BME280;13176;51.140;6.290;2022-12-17T06:39:56;101794.88;;;3.23;70.41
25232;BME280;13176;51.140;6.290;2022-12-17T06:42:51;101772.97;;;3.11;70.05
25232;BME280;13176;51.140;6.290;2022-12-17T06:45:36;101780.09;;;3.18;69.31
25232;BME280;13176;51.140;6.290;2022-12-17T06:48:21;101783.97;;;3.05;69.41
25232;BME280;13176;51.140;6.290;2022-12-17T06:51:05;101802.84;;;3.31;69.05
25232;BME280;13176;51.140;6.290;2022-12-17T06:53:50;101780.72;;;3.11;69.47
25232;BME280;13176;51.140;6.290;2022-12-17T06:56:35;101781.53;;;3.10;69.19
25232;BME280;13176;51.140;6.290;2022-12-17T06:59:19;101804.00;;;3.14;69.90
25232;BME280;13176;51.140;6.290;2022-12-17T07:02:04;101780.59;;;3.08;69.52
25232;BME280;13176;51.140;6.290;2022-12-17T07:04:49;101783.00;;;3.28;69.16
25232;BME280;13176;51.140;6.290;2022-12-17T07:07:34;101829.06;;;3.42;68.55
25232;BME280;13176;51.140;6.290;2022-12-17T07:10:22;101782.97;;;3.02;68.34
25232;BME280;13176;51.140;6.290;2022-12-17T07:13:07;101826.72;;;3.24;68.29
25232;BME280;13176;51.140;6.290;2022-12-17T07:15:53;101824.13;;;3.24;68.66
25232;BME280;13176;51.140;6.290;2022-12-17T07:18:38;101807.09;;;3.04;68.14
25232;BME280;13176;51.140;6.290;2022-12-17T07:21:23;101809.56;;;3.01;68.57
25232;BME280;13176;51.140;6.290;2022-12-17T07:24:09;101807.00;;;3.01;68.68
25232;BME280;13176;51.140;6.290;2022-12-17T07:26:54;101785.44;;;2.74;68.39
25232;BME280;13176;51.140;6.290;2022-12-17T07:29:39;101848.91;;;2.95;68.56
25232;BME280;13176;51.140;6.290;2022-12-17T07:32:24;101816.47;;;2.77;68.88
25232;BME280;13176;51.140;6.290;2022-12-17T07:35:08;101807.31;;;2.85;68.15
25232;BME280;13176;51.140;6.290;2022-12-17T07:38:00;101806.47;;;2.86;68.50
25232;BME280;13176;51.140;6.290;2022-12-17T07:40:46;101822.88;;;3.13;68.08
25232;BME280;13176;51.140;6.290;2022-12-17T07:43:30;101824.09;;;2.99;67.95
25232;BME280;13176;51.140;6.290;2022-12-17T07:46:19;101824.00;;;2.96;68.26
25232;BME280;13176;51.140;6.290;2022-12-17T07:49:04;101843.06;;;3.01;68.27
25232;BME280;13176;51.140;6.290;2022-12-17T07:51:52;101874.53;;;3.16;67.95
25232;BME280;13176;51.140;6.290;2022-12-17T07:54:37;101825.38;;;2.63;68.23
25232;BME280;13176;51.140;6.290;2022-12-17T07:57:22;101824.44;;;2.84;67.82
25232;BME280;13176;51.140;6.290;2022-12-17T08:00:07;101876.19;;;3.14;67.83
25232;BME280;13176;51.140;6.290;2022-12-17T08:02:58;101835.09;;;2.93;68.01
25232;BME280;13176;51.140;6.290;2022-12-17T08:05:44;101849.47;;;2.87;68.22
25232;BME280;13176;51.140;6.290;2022-12-17T08:08:29;101867.31;;;2.82;68.07
25232;BME280;13176;51.140;6.290;2022-12-17T08:11:14;101847.38;;;2.77;68.18
25232;BME280;13176;51.140;6.290;2022-12-17T08:13:58;101875.00;;;2.81;68.62
25232;BME280;13176;51.140;6.290;2022-12-17T08:16:43;101892.56;;;2.91;68.84
25232;BME280;13176;51.140;6.290;2022-12-17T08:19:28;101851.31;;;2.67;67.80
25232;BME280;13176;51.140;6.290;2022-12-17T08:22:13;101862.72;;;2.74;68.54
25232;BME280;13176;51.140;6.290;2022-12-17T08:24:58;101861.41;;;2.85;68.48
25232;BME280;13176;51.140;6.290;2022-12-17T08:27:57;101892.34;;;2.85;68.17
25232;BME280;13176;51.140;6.290;2022-12-17T08:31:02;101908.03;;;2.91;68.21
25232;BME280;13176;51.140;6.290;2022-12-17T08:33:54;101863.47;;;2.95;67.93
25232;BME280;13176;51.140;6.290;2022-12-17T08:36:39;101896.44;;;3.03;68.06
25232;BME280;13176;51.140;6.290;2022-12-17T08:39:24;101881.69;;;2.99;68.28
25232;BME280;13176;51.140;6.290;2022-12-17T08:42:09;101897.38;;;3.05;68.09
25232;BME280;13176;51.140;6.290;2022-12-17T08:44:54;101915.34;;;3.04;68.10
25232;BME280;13176;51.140;6.290;2022-12-17T08:47:39;101899.53;;;2.95;68.05
25232;BME280;13176;51.140;6.290;2022-12-17T08:50:29;101941.72;;;2.97;68.46
25232;BME280;13176;51.140;6.290;2022-12-17T08:53:14;101950.13;;;3.15;67.84
25232;BME280;13176;51.140;6.290;2022-12-17T08:56:00;101945.06;;;3.18;68.16
25232;BME280;13176;51.140;6.290;2022-12-17T08:58:45;101916.16;;;3.03;67.73
25232;BME280;13176;51.140;6.290;2022-12-17T09:01:30;101925.44;;;3.21;67.74
25232;BME280;13176;51.140;6.290;2022-12-17T09:04:15;101910.31;;;3.07;67.17
25232;BME280;13176;51.140;6.290;2022-12-17T09:07:00;101920.75;;;3.11;67.46
25232;BME280;13176;51.140;6.290;2022-12-17T09:09:45;101928.78;;;2.95;67.57
25232;BME280;13176;51.140;6.290;2022-12-17T09:12:30;101917.59;;;2.95;67.73
25232;BME280;13176;51.140;6.290;2022-12-17T09:15:15;101932.34;;;2.99;67.94
25232;BME280;13176;51.140;6.290;2022-12-17T09:18:17;101950.84;;;3.11;68.09
25232;BME280;13176;51.140;6.290;2022-12-17T09:21:03;101913.66;;;2.59;67.96
25232;BME280;13176;51.140;6.290;2022-12-17T09:23:49;101924.06;;;2.62;68.72
25232;BME280;13176;51.140;6.290;2022-12-17T09:26:34;101942.34;;;2.90;68.44
25232;BME280;13176;51.140;6.290;2022-12-17T09:29:19;101904.00;;;2.53;68.87
25232;BME280;13176;51.140;6.290;2022-12-17T09:32:03;101959.88;;;3.00;68.59
25232;BME280;13176;51.140;6.290;2022-12-17T09:34:49;101907.81;;;2.63;68.17
25232;BME280;13176;51.140;6.290;2022-12-17T09:37:33;101934.19;;;2.79;67.58
25232;BME280;13176;51.140;6.290;2022-12-17T09:40:22;101967.91;;;2.85;67.78
25232;BME280;13176;51.140;6.290;2022-12-17T09:43:30;101947.38;;;2.87;67.59
25232;BME280;13176;51.140;6.290;2022-12-17T09:46:32;101975.31;;;3.00;68.21
25232;BME280;13176;51.140;6.290;2022-12-17T09:49:23;101952.44;;;2.85;68.20
25232;BME280;13176;51.140;6.290;2022-12-17T09:52:23;101946.09;;;2.76;68.52
25232;BME280;13176;51.140;6.290;2022-12-17T09:55:19;101974.78;;;2.85;68.38
25232;BME280;13176;51.140;6.290;2022-12-17T09:58:05;101941.88;;;2.78;68.27
25232;BME280;13176;51.140;6.290;2022-12-17T10:00:51;101972.91;;;2.81;68.65
25232;BME280;13176;51.140;6.290;2022-12-17T10:03:38;101929.66;;;2.50;68.32
25232;BME280;13176;51.140;6.290;2022-12-17T10:06:26;101995.78;;;2.95;68.40
25232;BME280;13176;51.140;6.290;2022-12-17T10:09:13;101981.56;;;2.83;68.74
25232;BME280;13176;51.140;6.290;2022-12-17T10:12:07;101997.91;;;2.83;68.53
25232;BME280;13176;51.140;6.290;2022-12-17T10:14:55;102004.06;;;2.87;68.64
25232;BME280;13176;51.140;6.290;2022-12-17T10:17:40;101979.56;;;2.76;68.66
25232;BME280;13176;51.140;6.290;2022-12-17T10:20:30;101988.16;;;2.76;68.25
25232;BME280;13176;51.140;6.290;2022-12-17T10:23:27;102016.44;;;2.97;68.07
25232;BME280;13176;51.140;6.290;2022-12-17T10:26:27;102014.81;;;2.99;67.91
25232;BME280;13176;51.140;6.290;2022-12-17T10:29:22;101980.63;;;2.59;68.01
25232;BME280;13176;51.140;6.290;2022-12-17T10:34:59;102009.78;;;2.80;67.95
25232;BME280;13176;51.140;6.290;2022-12-17T10:37:44;101939.94;;;2.50;68.56
25232;BME280;13176;51.140;6.290;2022-12-17T10:40:31;102015.66;;;2.76;68.13
25232;BME280;13176;51.140;6.290;2022-12-17T10:43:30;101986.91;;;2.65;68.60
25232;BME280;13176;51.140;6.290;2022-12-17T10:46:30;101994.31;;;2.58;67.83
25232;BME280;13176;51.140;6.290;2022-12-17T10:49:18;101986.25;;;2.71;68.01
25232;BME280;13176;51.140;6.290;2022-12-17T10:52:06;102013.75;;;2.94;68.92
25232;BME280;13176;51.140;6.290;2022-12-17T10:55:03;102027.41;;;2.91;68.02
25232;BME280;13176;51.140;6.290;2022-12-17T10:57:50;101984.25;;;2.64;68.01
25232;BME280;13176;51.140;6.290;2022-12-17T11:00:38;102001.94;;;2.77;67.90
25232;BME280;13176;51.140;6.290;2022-12-17T11:03:25;102027.13;;;2.84;67.72
25232;BME280;13176;51.140;6.290;2022-12-17T11:06:13;102022.78;;;2.83;67.63
25232;BME280;13176;51.140;6.290;2022-12-17T11:09:13;101989.78;;;2.51;66.51
25232;BME280;13176;51.140;6.290;2022-12-17T11:12:00;102002.69;;;2.52;67.16
25232;BME280;13176;51.140;6.290;2022-12-17T11:14:58;102018.69;;;2.66;67.59
25232;BME280;13176;51.140;6.290;2022-12-17T11:17:48;101958.25;;;2.14;67.46
25232;BME280;13176;51.140;6.290;2022-12-17T11:20:51;102007.69;;;2.48;67.54
25232;BME280;13176;51.140;6.290;2022-12-17T11:23:41;101983.44;;;2.43;68.40
25232;BME280;13176;51.140;6.290;2022-12-17T11:26:31;102031.38;;;2.61;68.28
25232;BME280;13176;51.140;6.290;2022-12-17T11:29:18;101991.16;;;2.65;67.34
25232;BME280;13176;51.140;6.290;2022-12-17T11:38:30;102010.72;;;2.82;67.96
25232;BME280;13176;51.140;6.290;2022-12-17T11:41:33;101970.00;;;2.73;67.46
25232;BME280;13176;51.140;6.290;2022-12-17T11:44:56;102016.25;;;3.14;66.46
25232;BME280;13176;51.140;6.290;2022-12-17T11:53:24;102007.78;;;2.95;66.37
25232;BME280;13176;51.140;6.290;2022-12-17T11:56:40;101988.59;;;2.87;67.22
25232;BME280;13176;51.140;6.290;2022-12-17T11:59:32;101973.25;;;2.90;67.05
25232;BME280;13176;51.140;6.290;2022-12-17T12:03:03;101994.97;;;2.96;67.22
25232;BME280;13176;51.140;6.290;2022-12-17T12:06:02;101982.34;;;3.04;66.54
25232;BME280;13176;51.140;6.290;2022-12-17T12:12:41;102015.03;;;3.05;66.92
25232;BME280;13176;51.140;6.290;2022-12-17T12:15:24;101991.38;;;2.93;66.65
25232;BME280;13176;51.140;6.290;2022-12-17T12:18:30;101994.31;;;3.02;65.91
25232;BME280;13176;51.140;6.290;2022-12-17T12:21:37;101991.47;;;3.18;66.33
25232;BME280;13176;51.140;6.290;2022-12-17T12:27:19;101990.88;;;2.79;65.81
25232;BME280;13176;51.140;6.290;2022-12-17T12:30:15;102014.91;;;3.02;65.67
25232;BME280;13176;51.140;6.290;2022-12-17T12:33:43;101992.38;;;2.74;65.97
25232;BME280;13176;51.140;6.290;2022-12-17T12:36:40;101996.19;;;2.62;66.79
25232;BME280;13176;51.140;6.290;2022-12-17T12:42:35;101949.94;;;2.65;66.84
25232;BME280;13176;51.140;6.290;2022-12-17T12:45:31;101998.06;;;3.10;66.77
25232;BME280;13176;51.140;6.290;2022-12-17T12:48:40;101996.78;;;2.77;66.93
25232;BME280;13176;51.140;6.290;2022-12-17T12:51:30;101975.00;;;2.69;66.68
25232;BME280;13176;51.140;6.290;2022-12-17T13:03:31;101969.19;;;2.74;66.19
25232;BME280;13176;51.140;6.290;2022-12-17T13:11:48;102001.16;;;2.79;66.99
25232;BME280;13176;51.140;6.290;2022-12-17T13:14:18;101997.28;;;2.89;67.01
25232;BME280;13176;51.140;6.290;2022-12-17T13:19:37;101988.91;;;2.96;66.79
25232;BME280;13176;51.140;6.290;2022-12-17T13:24:51;101986.50;;;2.77;66.20
25232;BME280;13176;51.140;6.290;2022-12-17T13:27:37;101932.41;;;2.55;66.73
25232;BME280;13176;51.140;6.290;2022-12-17T13:35:44;101966.63;;;2.96;66.76
25232;BME280;13176;51.140;6.290;2022-12-17T13:41:06;101942.88;;;2.59;67.49
25232;BME280;13176;51.140;6.290;2022-12-17T13:43:41;101968.63;;;2.81;66.69
25232;BME280;13176;51.140;6.290;2022-12-17T13:46:43;101968.31;;;2.96;67.43
25232;BME280;13176;51.140;6.290;2022-12-17T13:49:22;101979.81;;;2.82;66.55
25232;BME280;13176;51.140;6.290;2022-12-17T13:52:16;101961.00;;;2.84;66.44
25232;BME280;13176;51.140;6.290;2022-12-17T13:54:42;101916.50;;;2.43;67.02
25232;BME280;13176;51.140;6.290;2022-12-17T13:57:14;101908.19;;;2.50;66.37
25232;BME280;13176;51.140;6.290;2022-12-17T13:59:48;101956.00;;;2.65;67.23
25232;BME280;13176;51.140;6.290;2022-12-17T14:02:22;101979.94;;;2.85;66.86
25232;BME280;13176;51.140;6.290;2022-12-17T14:04:54;101900.69;;;2.34;67.42
25232;BME280;13176;51.140;6.290;2022-12-17T14:07:24;101964.13;;;2.76;67.22
25232;BME280;13176;51.140;6.290;2022-12-17T14:09:51;101916.00;;;2.31;66.80
25232;BME280;13176;51.140;6.290;2022-12-17T14:12:21;101986.50;;;2.77;67.30
25232;BME280;13176;51.140;6.290;2022-12-17T14:14:54;101968.88;;;2.65;67.41
25232;BME280;13176;51.140;6.290;2022-12-17T14:17:48;101982.97;;;2.75;67.56
25232;BME280;13176;51.140;6.290;2022-12-17T14:20:24;101986.13;;;2.68;66.94
25232;BME280;13176;51.140;6.290;2022-12-17T14:22:59;101986.72;;;2.61;67.78
25232;BME280;13176;51.140;6.290;2022-12-17T14:25:34;101962.97;;;2.46;67.81
25232;BME280;13176;51.140;6.290;2022-12-17T14:28:18;101992.03;;;2.43;66.81
25232;BME280;13176;51.140;6.290;2022-12-17T14:30:45;101991.53;;;2.74;67.75
25232;BME280;13176;51.140;6.290;2022-12-17T14:33:36;101992.91;;;2.66;67.95
25232;BME280;13176;51.140;6.290;2022-12-17T14:38:59;101989.41;;;2.64;68.18
25232;BME280;13176;51.140;6.290;2022-12-17T14:41:27;101966.81;;;2.57;67.54
25232;BME280;13176;51.140;6.290;2022-12-17T14:44:21;101971.38;;;2.64;67.16
25232;BME280;13176;51.140;6.290;2022-12-17T14:46:51;101883.31;;;1.86;66.98
25232;BME280;13176;51.140;6.290;2022-12-17T14:49:20;101981.94;;;2.48;66.96
25232;BME280;13176;51.140;6.290;2022-12-17T14:51:48;101795.56;;;1.57;67.50
25232;BME280;13176;51.140;6.290;2022-12-17T14:56:58;102000.53;;;2.63;66.31
25232;BME280;13176;51.140;6.290;2022-12-17T15:02:01;101977.53;;;2.25;67.50
25232;BME280;13176;51.140;6.290;2022-12-17T15:04:30;102005.41;;;2.35;67.82
25232;BME280;13176;51.140;6.290;2022-12-17T15:06:57;101963.03;;;2.05;67.73
25232;BME280;13176;51.140;6.290;2022-12-17T15:09:24;101953.69;;;1.87;68.31
25232;BME280;13176;51.140;6.290;2022-12-17T15:11:50;101995.41;;;2.00;68.10
25232;BME280;13176;51.140;6.290;2022-12-17T15:14:17;101961.78;;;1.75;68.66
25232;BME280;13176;51.140;6.290;2022-12-17T15:16:43;101990.50;;;1.86;67.83
25232;BME280;13176;51.140;6.290;2022-12-17T15:19:11;101904.09;;;1.29;68.92
25232;BME280;13176;51.140;6.290;2022-12-17T15:21:37;101965.56;;;1.64;69.31
25232;BME280;13176;51.140;6.290;2022-12-17T15:24:05;101976.03;;;1.69;69.04
25232;BME280;13176;51.140;6.290;2022-12-17T15:26:32;101986.28;;;1.67;68.83
25232;BME280;13176;51.140;6.290;2022-12-17T15:28:58;101975.88;;;1.64;68.92
25232;BME280;13176;51.140;6.290;2022-12-17T15:31:24;101975.47;;;1.55;68.54
25232;BME280;13176;51.140;6.290;2022-12-17T15:33:57;101993.59;;;1.58;69.35
25232;BME280;13176;51.140;6.290;2022-12-17T15:36:24;101975.19;;;1.49;68.66
25232;BME280;13176;51.140;6.290;2022-12-17T15:38:50;102000.09;;;1.50;68.55
25232;BME280;13176;51.140;6.290;2022-12-17T15:41:16;101995.91;;;1.52;68.91
25232;BME280;13176;51.140;6.290;2022-12-17T15:44:02;101984.44;;;1.44;68.54
25232;BME280;13176;51.140;6.290;2022-12-17T15:46:28;101973.75;;;1.35;68.19
25232;BME280;13176;51.140;6.290;2022-12-17T15:48:55;101888.19;;;0.80;67.96
25232;BME280;13176;51.140;6.290;2022-12-17T15:51:22;102010.47;;;1.33;68.09